createdAt,value
2022-12-29T00:00:08.537Z,-0.43
2022-12-29T00:02:41.933Z,-0.54
2022-12-29T00:05:09.285Z,-0.16
2022-12-29T00:07:36.252Z,0.29
2022-12-29T00:10:03.444Z,0.31
2022-12-29T00:12:50.401Z,0.18
2022-12-29T00:15:36.157Z,-0.05
2022-12-29T00:18:03.376Z,-0.28
2022-12-29T00:20:49.297Z,-0.44
2022-12-29T00:23:35.121Z,-0.58
2022-12-29T00:26:23.477Z,-0.66
2022-12-29T00:29:10.375Z,-0.25
2022-12-29T00:31:56.153Z,0.42
2022-12-29T00:34:41.879Z,0.50
2022-12-29T00:37:08.795Z,0.32
2022-12-29T00:40:05.227Z,0.02
2022-12-29T00:42:50.904Z,-0.13
2022-12-29T00:45:18.157Z,-0.29
2022-12-29T00:47:45.324Z,-0.44
2022-12-29T00:50:12.226Z,-0.54
2022-12-29T00:52:39.089Z,-0.56
2022-12-29T00:55:06.455Z,0.08
2022-12-29T00:57:33.972Z,0.50
2022-12-29T01:00:01.352Z,0.52
2022-12-29T01:02:29.587Z,0.30
2022-12-29T01:04:56.697Z,0.07
2022-12-29T01:07:23.730Z,-0.15
2022-12-29T01:10:09.533Z,-0.40
2022-12-29T01:12:42.831Z,-0.54
2022-12-29T01:15:11.963Z,-0.65
2022-12-29T01:17:38.853Z,-0.51
2022-12-29T01:20:06.133Z,0.15
2022-12-29T01:22:34.026Z,0.36
2022-12-29T01:25:00.943Z,0.35
2022-12-29T01:27:27.872Z,0.19
2022-12-29T01:29:54.730Z,0.00
2022-12-29T01:32:21.561Z,-0.11
2022-12-29T01:34:48.397Z,-0.18
2022-12-29T01:37:15.364Z,-0.31
2022-12-29T01:39:42.213Z,-0.45
2022-12-29T01:42:17.449Z,-0.54
2022-12-29T01:44:52.494Z,-0.13
2022-12-29T01:47:33.561Z,0.30
2022-12-29T01:50:22.924Z,0.41
2022-12-29T01:53:19.000Z,0.26
2022-12-29T01:55:49.675Z,0.03
2022-12-29T01:58:16.983Z,-0.22
2022-12-29T02:00:44.995Z,-0.40
2022-12-29T02:03:11.875Z,-0.48
2022-12-29T02:05:47.436Z,-0.61
2022-12-29T02:08:14.420Z,-0.57
2022-12-29T02:10:41.316Z,-0.08
2022-12-29T02:13:08.151Z,0.23
2022-12-29T02:15:53.743Z,0.14
2022-12-29T02:18:36.943Z,-0.16
2022-12-29T02:21:34.320Z,-0.30
2022-12-29T02:24:25.829Z,-0.42
2022-12-29T02:27:13.979Z,-0.58
2022-12-29T02:29:53.294Z,-0.65
2022-12-29T02:32:29.640Z,-0.57
2022-12-29T02:35:07.139Z,-0.02
2022-12-29T02:37:40.478Z,0.33
2022-12-29T02:40:08.793Z,0.27
2022-12-29T02:42:48.325Z,0.16
2022-12-29T02:45:44.557Z,-0.03
2022-12-29T02:48:17.242Z,-0.21
2022-12-29T02:50:52.048Z,-0.40
2022-12-29T02:53:38.957Z,-0.55
2022-12-29T02:56:06.164Z,-0.64
2022-12-29T02:58:33.132Z,-0.70
2022-12-29T03:01:34.515Z,-0.33
2022-12-29T03:04:24.938Z,0.14
2022-12-29T03:07:16.558Z,0.16
2022-12-29T03:09:52.779Z,0.02
2022-12-29T03:13:22.519Z,-0.17
2022-12-29T03:16:20.282Z,-0.35
2022-12-29T03:18:57.761Z,-0.45
2022-12-29T03:21:44.770Z,-0.55
2022-12-29T03:24:12.117Z,-0.62
2022-12-29T03:26:39.099Z,-0.30
2022-12-29T03:29:05.994Z,0.19
2022-12-29T03:31:32.941Z,0.37
2022-12-29T03:34:00.067Z,0.30
2022-12-29T03:36:49.394Z,0.17
2022-12-29T03:39:16.280Z,0.10
2022-12-29T03:41:45.569Z,-0.04
2022-12-29T03:44:13.743Z,-0.12
2022-12-29T03:46:41.406Z,-0.24
2022-12-29T03:49:09.085Z,-0.34
2022-12-29T03:51:35.955Z,-0.01
2022-12-29T03:54:03.553Z,0.61
2022-12-29T03:56:30.571Z,0.77
2022-12-29T03:58:58.671Z,0.61
2022-12-29T04:01:31.989Z,0.35
2022-12-29T04:03:58.970Z,0.25
2022-12-29T04:06:26.212Z,0.22
2022-12-29T04:09:01.596Z,-0.03
2022-12-29T04:11:33.093Z,-0.11
2022-12-29T04:14:01.186Z,-0.24
2022-12-29T04:16:29.611Z,-0.16
2022-12-29T04:18:56.691Z,0.39
2022-12-29T04:21:23.617Z,0.65
2022-12-29T04:23:50.549Z,0.67
2022-12-29T04:26:17.727Z,0.43
2022-12-29T04:28:53.638Z,0.17
2022-12-29T04:31:40.921Z,-0.00
2022-12-29T04:34:08.104Z,-0.13
2022-12-29T04:36:35.121Z,-0.26
2022-12-29T04:39:02.099Z,-0.33
2022-12-29T04:41:29.310Z,-0.36
2022-12-29T04:43:56.249Z,0.25
2022-12-29T04:46:43.448Z,0.54
2022-12-29T04:51:27.726Z,0.40
2022-12-29T04:53:54.628Z,0.25
2022-12-29T04:56:21.678Z,0.00
2022-12-29T04:58:48.839Z,-0.12
2022-12-29T05:01:15.711Z,-0.23
2022-12-29T05:03:44.048Z,-0.32
2022-12-29T05:06:11.307Z,-0.32
2022-12-29T05:08:38.243Z,0.20
2022-12-29T05:11:06.822Z,0.51
2022-12-29T05:13:34.497Z,0.51
2022-12-29T05:16:01.597Z,0.38
2022-12-29T05:18:29.000Z,0.19
2022-12-29T05:20:56.302Z,0.12
2022-12-29T05:23:24.324Z,-0.00
2022-12-29T05:25:58.022Z,-0.12
2022-12-29T05:28:48.011Z,0.09
2022-12-29T05:31:19.367Z,0.58
2022-12-29T05:33:47.213Z,0.74
2022-12-29T05:36:14.550Z,0.66
2022-12-29T05:38:46.125Z,0.51
2022-12-29T05:41:13.576Z,0.24
2022-12-29T05:44:03.176Z,0.15
2022-12-29T05:46:30.243Z,0.09
2022-12-29T05:49:09.544Z,0.18
2022-12-29T05:52:45.496Z,0.77
2022-12-29T05:55:12.852Z,0.95
2022-12-29T05:57:40.824Z,0.80
2022-12-29T06:00:12.236Z,0.70
2022-12-29T06:02:42.699Z,0.57
2022-12-29T06:05:10.279Z,0.49
2022-12-29T06:07:39.152Z,0.38
2022-12-29T06:10:07.525Z,0.36
2022-12-29T06:12:42.835Z,0.84
2022-12-29T06:15:10.868Z,1.27
2022-12-29T06:17:40.752Z,1.36
2022-12-29T06:20:09.072Z,1.25
2022-12-29T06:22:36.334Z,1.12
2022-12-29T06:25:05.381Z,0.98
2022-12-29T06:27:34.777Z,0.89
2022-12-29T06:30:01.954Z,0.79
2022-12-29T06:32:29.513Z,0.68
2022-12-29T06:35:02.397Z,0.60
2022-12-29T06:37:29.689Z,0.68
2022-12-29T06:39:57.093Z,1.32
2022-12-29T06:42:28.223Z,1.49
2022-12-29T06:45:14.120Z,1.39
2022-12-29T06:47:41.474Z,1.24
2022-12-29T06:50:09.268Z,1.09
2022-12-29T06:52:37.165Z,0.88
2022-12-29T06:55:05.230Z,0.76
2022-12-29T06:57:32.430Z,0.70
2022-12-29T06:59:59.579Z,0.63
2022-12-29T07:02:27.081Z,0.56
2022-12-29T07:04:54.374Z,0.66
2022-12-29T07:07:21.878Z,1.36
2022-12-29T07:09:48.885Z,1.69
2022-12-29T07:12:16.136Z,1.66
2022-12-29T07:17:29.273Z,1.32
2022-12-29T07:19:56.429Z,1.18
2022-12-29T07:22:23.683Z,1.13
2022-12-29T07:24:50.839Z,1.10
2022-12-29T07:27:18.188Z,1.00
2022-12-29T07:29:45.560Z,0.92
2022-12-29T07:32:12.876Z,0.91
2022-12-29T07:34:41.004Z,0.83
2022-12-29T07:37:08.202Z,1.04
2022-12-29T07:39:35.368Z,1.70
2022-12-29T07:42:05.074Z,1.89
2022-12-29T07:44:40.098Z,1.92
2022-12-29T07:47:17.101Z,1.67
2022-12-29T07:49:44.543Z,1.59
2022-12-29T07:52:11.720Z,1.39
2022-12-29T07:54:39.080Z,1.34
2022-12-29T07:57:07.701Z,1.26
2022-12-29T07:59:35.101Z,1.16
2022-12-29T08:02:02.576Z,1.13
2022-12-29T08:04:29.732Z,1.08
2022-12-29T08:06:56.848Z,1.09
2022-12-29T08:09:24.624Z,1.10
2022-12-29T08:11:52.174Z,1.23
2022-12-29T08:14:19.503Z,1.87
2022-12-29T08:16:46.441Z,2.12
2022-12-29T08:19:13.510Z,2.12
2022-12-29T08:21:40.589Z,2.08
2022-12-29T08:24:08.158Z,1.87
2022-12-29T08:26:35.839Z,1.77
2022-12-29T08:29:02.892Z,1.66
2022-12-29T08:31:29.954Z,1.55
2022-12-29T08:33:57.241Z,1.48
2022-12-29T08:36:24.472Z,1.47
2022-12-29T08:38:51.514Z,1.43
2022-12-29T08:41:18.399Z,1.43
2022-12-29T08:43:49.520Z,1.42
2022-12-29T08:46:17.529Z,1.40
2022-12-29T08:48:44.721Z,1.38
2022-12-29T08:51:11.877Z,1.36
2022-12-29T08:53:39.044Z,1.36
2022-12-29T08:56:06.881Z,1.33
2022-12-29T08:58:40.791Z,1.46
2022-12-29T09:01:08.112Z,2.12
2022-12-29T09:04:12.920Z,2.37
2022-12-29T09:06:22.517Z,2.37
2022-12-29T09:08:49.435Z,2.31
2022-12-29T09:11:19.977Z,2.30
2022-12-29T09:13:47.549Z,2.18
2022-12-29T09:16:14.960Z,2.05
2022-12-29T09:18:42.396Z,1.98
2022-12-29T09:21:10.631Z,1.94
2022-12-29T09:23:37.913Z,1.99
2022-12-29T09:26:05.046Z,1.91
2022-12-29T09:28:32.256Z,1.95
2022-12-29T09:30:59.722Z,1.87
2022-12-29T09:33:27.208Z,1.81
2022-12-29T09:35:56.126Z,1.85
2022-12-29T09:38:23.868Z,1.86
2022-12-29T09:40:53.801Z,1.83
2022-12-29T09:43:46.320Z,1.88
2022-12-29T09:46:27.783Z,1.89
2022-12-29T09:49:06.011Z,1.91
2022-12-29T09:51:32.999Z,1.90
2022-12-29T09:54:02.395Z,1.89
2022-12-29T09:56:29.503Z,1.87
2022-12-29T09:59:14.398Z,1.90
2022-12-29T10:01:52.923Z,1.91
2022-12-29T10:04:20.173Z,1.94
2022-12-29T10:07:19.873Z,1.99
2022-12-29T10:09:49.394Z,2.10
2022-12-29T10:12:35.042Z,2.14
2022-12-29T10:15:26.598Z,2.22
2022-12-29T10:17:59.551Z,2.22
2022-12-29T10:20:45.444Z,2.24
2022-12-29T10:23:23.490Z,2.30
2022-12-29T10:25:50.606Z,2.32
2022-12-29T10:28:23.225Z,2.39
2022-12-29T10:30:51.471Z,2.35
2022-12-29T10:33:21.964Z,2.41
2022-12-29T10:35:49.148Z,2.45
2022-12-29T10:38:52.899Z,2.48
2022-12-29T10:41:27.643Z,2.46
2022-12-29T10:43:55.989Z,2.49
2022-12-29T10:46:26.159Z,2.47
2022-12-29T10:48:53.128Z,2.54
2022-12-29T10:51:29.641Z,2.60
2022-12-29T10:54:04.513Z,2.60
2022-12-29T10:56:36.101Z,2.64
2022-12-29T10:59:18.170Z,2.66
2022-12-29T11:02:11.774Z,2.69
2022-12-29T11:04:48.444Z,2.68
2022-12-29T11:07:22.152Z,2.63
2022-12-29T11:09:52.832Z,2.69
2022-12-29T11:12:27.333Z,2.64
2022-12-29T11:15:13.663Z,2.63
2022-12-29T11:18:10.772Z,2.66
2022-12-29T11:20:39.837Z,2.65
2022-12-29T11:23:41.152Z,2.65
2022-12-29T11:26:11.120Z,2.64
2022-12-29T11:28:39.644Z,2.68
2022-12-29T11:31:07.585Z,2.65
2022-12-29T11:33:39.271Z,2.69
2022-12-29T11:36:13.433Z,2.67
2022-12-29T11:38:41.968Z,2.61
2022-12-29T11:41:12.999Z,2.61
2022-12-29T11:43:42.532Z,2.61
2022-12-29T11:46:16.443Z,2.64
2022-12-29T11:48:43.672Z,2.63
2022-12-29T11:51:11.347Z,2.65
2022-12-29T11:53:41.304Z,2.64
2022-12-29T11:56:13.658Z,2.67
2022-12-29T11:58:40.789Z,2.74
2022-12-29T12:01:28.743Z,2.73
2022-12-29T12:04:06.695Z,2.76
2022-12-29T12:06:35.298Z,2.84
2022-12-29T12:09:06.324Z,2.88
2022-12-29T12:11:39.119Z,2.89
2022-12-29T12:14:18.142Z,2.90
2022-12-29T12:17:15.934Z,2.93
2022-12-29T12:19:50.740Z,2.92
2022-12-29T12:22:22.801Z,2.91
2022-12-29T12:25:03.163Z,2.88
2022-12-29T12:27:42.742Z,2.87
2022-12-29T12:30:20.601Z,2.85
2022-12-29T12:33:10.815Z,2.82
2022-12-29T12:35:54.030Z,2.82
2022-12-29T12:38:46.374Z,2.82
2022-12-29T12:41:21.609Z,2.77
2022-12-29T12:44:14.457Z,2.71
2022-12-29T12:47:07.927Z,2.70
2022-12-29T12:49:56.993Z,3.29
2022-12-29T12:52:50.598Z,3.74
2022-12-29T12:55:39.207Z,3.66
2022-12-29T12:58:09.507Z,3.51
2022-12-29T13:01:00.978Z,3.33
2022-12-29T13:03:59.497Z,3.15
2022-12-29T13:06:49.107Z,3.01
2022-12-29T13:09:58.554Z,2.91
2022-12-29T13:13:03.638Z,2.84
2022-12-29T13:15:36.915Z,2.77
2022-12-29T13:18:15.088Z,2.71
2022-12-29T13:20:57.702Z,2.66
2022-12-29T13:23:46.496Z,2.62
2022-12-29T13:26:44.237Z,2.57
2022-12-29T13:29:21.439Z,2.51
2022-12-29T13:32:12.321Z,2.46
2022-12-29T13:35:03.420Z,2.41
2022-12-29T13:37:31.712Z,2.38
2022-12-29T13:40:01.077Z,2.37
2022-12-29T13:42:27.947Z,2.75
2022-12-29T13:45:11.418Z,3.61
2022-12-29T13:47:40.000Z,4.02
2022-12-29T13:50:13.674Z,3.95
2022-12-29T13:52:45.727Z,3.81
2022-12-29T13:55:29.682Z,3.59
2022-12-29T13:58:02.529Z,3.35
2022-12-29T14:00:31.764Z,3.18
2022-12-29T14:03:37.210Z,3.01
2022-12-29T14:06:35.915Z,2.83
2022-12-29T14:09:04.989Z,2.66
2022-12-29T14:11:35.738Z,2.53
2022-12-29T14:14:22.131Z,2.40
2022-12-29T14:16:49.486Z,2.29
2022-12-29T14:19:37.807Z,2.22
2022-12-29T14:22:04.856Z,2.14
2022-12-29T14:24:37.910Z,2.10
2022-12-29T14:27:31.220Z,2.57
2022-12-29T14:29:58.148Z,3.16
2022-12-29T14:32:25.230Z,3.20
2022-12-29T14:34:53.384Z,3.07
2022-12-29T14:37:27.634Z,2.89
2022-12-29T14:40:20.463Z,2.71
2022-12-29T14:42:47.819Z,2.53
2022-12-29T14:45:14.745Z,2.41
2022-12-29T14:47:46.236Z,2.32
2022-12-29T14:50:27.430Z,2.21
2022-12-29T14:53:02.571Z,2.15
2022-12-29T14:55:44.213Z,2.09
2022-12-29T14:58:23.565Z,2.04
2022-12-29T15:00:50.534Z,2.44
2022-12-29T15:03:30.751Z,2.81
2022-12-29T15:06:09.840Z,2.86
2022-12-29T15:09:10.033Z,2.75
2022-12-29T15:11:36.941Z,2.57
2022-12-29T15:14:03.868Z,2.44
2022-12-29T15:16:33.110Z,2.30
2022-12-29T15:19:00.463Z,2.24
2022-12-29T15:21:30.314Z,2.12
2022-12-29T15:23:57.614Z,2.06
2022-12-29T15:26:25.057Z,2.00
2022-12-29T15:28:53.073Z,2.01
2022-12-29T15:31:27.950Z,1.95
2022-12-29T15:34:17.601Z,1.95
2022-12-29T15:36:44.685Z,1.94
2022-12-29T15:39:31.274Z,2.26
2022-12-29T15:42:05.327Z,2.83
2022-12-29T15:44:41.292Z,2.94
2022-12-29T15:47:14.830Z,2.80
2022-12-29T15:49:43.765Z,2.66
2022-12-29T15:52:10.902Z,2.60
2022-12-29T15:54:38.326Z,2.50
2022-12-29T15:57:05.413Z,2.40
2022-12-29T15:59:34.616Z,2.29
2022-12-29T16:02:07.179Z,2.24
2022-12-29T16:04:54.305Z,2.22
2022-12-29T16:07:41.348Z,2.22
2022-12-29T16:10:28.485Z,2.21
2022-12-29T16:12:55.475Z,2.21
2022-12-29T16:15:23.778Z,2.19
2022-12-29T16:17:52.226Z,2.19
2022-12-29T16:20:21.633Z,2.20
2022-12-29T16:22:54.625Z,2.22
2022-12-29T16:25:33.144Z,2.21
2022-12-29T16:28:00.282Z,2.28
2022-12-29T16:30:33.676Z,2.26
2022-12-29T16:33:03.290Z,2.28
2022-12-29T16:35:40.548Z,2.27
2022-12-29T16:38:15.914Z,2.25
2022-12-29T16:40:59.273Z,2.25
2022-12-29T16:43:26.188Z,2.24
2022-12-29T16:45:53.215Z,2.26
2022-12-29T16:48:21.117Z,2.27
2022-12-29T16:50:48.575Z,2.28
2022-12-29T16:53:29.949Z,2.26
2022-12-29T16:55:58.117Z,2.23
2022-12-29T16:58:26.926Z,2.24
2022-12-29T17:00:56.523Z,2.25
2022-12-29T17:03:24.618Z,2.21
2022-12-29T17:05:57.294Z,2.19
2022-12-29T17:09:00.351Z,2.17
2022-12-29T17:11:59.392Z,2.15
2022-12-29T17:14:47.801Z,2.11
2022-12-29T17:17:35.934Z,2.11
2022-12-29T17:20:10.427Z,2.12
2022-12-29T17:22:37.443Z,2.07
2022-12-29T17:25:05.478Z,2.07
2022-12-29T17:28:14.291Z,2.10
2022-12-29T17:30:41.348Z,2.08
2022-12-29T17:33:11.791Z,2.03
2022-12-29T17:35:38.830Z,1.97
2022-12-29T17:38:22.562Z,1.96
2022-12-29T17:40:49.728Z,1.93
2022-12-29T17:43:17.074Z,1.88
2022-12-29T17:45:44.726Z,1.84
2022-12-29T17:48:16.176Z,1.83
2022-12-29T17:50:45.906Z,2.33
2022-12-29T17:53:14.707Z,2.75
2022-12-29T17:56:10.401Z,2.72
2022-12-29T17:58:37.690Z,2.52
2022-12-29T18:01:04.802Z,2.38
2022-12-29T18:03:42.120Z,2.29
2022-12-29T18:06:11.080Z,2.16
2022-12-29T18:08:39.164Z,2.06
2022-12-29T18:11:22.435Z,2.00
2022-12-29T18:13:49.536Z,1.90
2022-12-29T18:16:17.217Z,1.88
2022-12-29T18:18:44.340Z,1.88
2022-12-29T18:21:18.867Z,1.85
2022-12-29T18:23:46.313Z,1.87
2022-12-29T18:26:20.897Z,1.87
2022-12-29T18:28:53.920Z,1.87
2022-12-29T18:31:26.184Z,2.21
2022-12-29T18:33:54.686Z,2.87
2022-12-29T18:36:21.833Z,3.10
2022-12-29T18:38:48.873Z,3.05
2022-12-29T18:41:23.800Z,2.88
2022-12-29T18:43:50.775Z,2.77
2022-12-29T18:46:22.634Z,2.67
2022-12-29T18:48:51.128Z,2.51
2022-12-29T18:51:23.163Z,2.49
2022-12-29T18:53:51.117Z,2.41
2022-12-29T18:56:18.078Z,2.31
2022-12-29T18:58:45.116Z,2.22
2022-12-29T19:01:38.623Z,2.13
2022-12-29T19:04:05.726Z,2.03
2022-12-29T19:06:32.793Z,1.96
2022-12-29T19:08:59.743Z,1.93
2022-12-29T19:11:26.766Z,1.85
2022-12-29T19:13:54.451Z,1.82
2022-12-29T19:16:22.982Z,1.81
2022-12-29T19:19:05.746Z,1.78
2022-12-29T19:21:35.239Z,1.73
2022-12-29T19:24:02.288Z,1.70
2022-12-29T19:26:31.068Z,2.08
2022-12-29T19:28:58.497Z,2.53
2022-12-29T19:31:25.752Z,2.71
2022-12-29T19:33:53.845Z,2.63
2022-12-29T19:36:21.329Z,2.42
2022-12-29T19:38:48.456Z,2.23
2022-12-29T19:41:15.540Z,2.10
2022-12-29T19:43:43.939Z,1.95
2022-12-29T19:46:13.856Z,1.84
2022-12-29T19:48:41.457Z,1.74
2022-12-29T19:51:16.094Z,1.58
2022-12-29T19:53:44.274Z,1.42
2022-12-29T19:56:11.254Z,1.32
2022-12-29T19:58:42.632Z,1.26
2022-12-29T20:01:14.588Z,1.16
2022-12-29T20:03:41.876Z,1.30
2022-12-29T20:06:10.035Z,1.94
2022-12-29T20:08:37.384Z,2.17
2022-12-29T20:11:09.598Z,2.09
2022-12-29T20:13:36.720Z,1.91
2022-12-29T20:16:07.265Z,1.74
2022-12-29T20:18:35.924Z,1.54
2022-12-29T20:21:12.979Z,1.38
2022-12-29T20:23:40.633Z,1.25
2022-12-29T20:26:09.385Z,1.15
2022-12-29T20:28:36.394Z,1.13
2022-12-29T20:31:06.652Z,1.06
2022-12-29T20:33:34.269Z,1.06
2022-12-29T20:36:12.765Z,1.16
2022-12-29T20:38:39.677Z,1.85
2022-12-29T20:41:06.813Z,2.13
2022-12-29T20:43:34.547Z,2.06
2022-12-29T20:46:01.627Z,1.93
2022-12-29T20:48:30.523Z,1.73
2022-12-29T20:51:00.602Z,1.56
2022-12-29T20:53:28.284Z,1.38
2022-12-29T20:55:55.516Z,1.29
2022-12-29T20:58:23.877Z,1.16
2022-12-29T21:00:51.531Z,1.08
2022-12-29T21:03:18.765Z,1.00
2022-12-29T21:05:46.672Z,1.17
2022-12-29T21:08:13.738Z,1.78
2022-12-29T21:10:40.769Z,1.99
2022-12-29T21:13:07.839Z,1.96
2022-12-29T21:15:34.884Z,1.76
2022-12-29T21:18:01.887Z,1.60
2022-12-29T21:20:32.391Z,1.43
2022-12-29T21:23:01.174Z,1.28
2022-12-29T21:25:37.324Z,1.15
2022-12-29T21:28:08.660Z,1.01
2022-12-29T21:30:35.667Z,0.97
2022-12-29T21:33:03.145Z,1.11
2022-12-29T21:35:30.804Z,1.67
2022-12-29T21:37:57.809Z,1.84
2022-12-29T21:40:24.817Z,1.74
2022-12-29T21:42:51.837Z,1.59
2022-12-29T21:45:30.075Z,1.40
2022-12-29T21:48:28.934Z,1.24
2022-12-29T21:51:16.982Z,1.08
2022-12-29T21:53:44.962Z,0.94
2022-12-29T21:56:19.201Z,0.86
2022-12-29T21:59:06.716Z,1.25
2022-12-29T22:01:54.325Z,1.71
2022-12-29T22:04:41.746Z,1.76
2022-12-29T22:07:28.676Z,1.49
2022-12-29T22:10:14.480Z,1.36
2022-12-29T22:13:00.460Z,1.16
2022-12-29T22:15:29.394Z,1.05
2022-12-29T22:17:56.887Z,0.96
2022-12-29T22:20:27.102Z,1.02
2022-12-29T22:22:54.357Z,1.58
2022-12-29T22:25:21.691Z,1.82
2022-12-29T22:27:52.984Z,1.84
2022-12-29T22:30:22.871Z,1.67
2022-12-29T22:32:49.849Z,1.50
2022-12-29T22:35:16.863Z,1.34
2022-12-29T22:37:43.909Z,1.17
2022-12-29T22:40:11.517Z,1.10
2022-12-29T22:42:38.927Z,1.03
2022-12-29T22:45:06.871Z,1.13
2022-12-29T22:47:34.347Z,1.72
2022-12-29T22:50:01.347Z,1.86
2022-12-29T22:52:28.345Z,1.78
2022-12-29T22:54:55.175Z,1.64
2022-12-29T22:57:22.161Z,1.40
2022-12-29T22:59:49.175Z,1.19
2022-12-29T23:02:16.303Z,1.05
2022-12-29T23:07:30.611Z,0.77
2022-12-29T23:09:57.652Z,0.97
2022-12-29T23:12:24.719Z,1.57
2022-12-29T23:14:51.779Z,1.61
2022-12-29T23:17:18.888Z,1.52
2022-12-29T23:19:45.869Z,1.38
2022-12-29T23:22:13.078Z,1.17
2022-12-29T23:24:40.044Z,0.97
2022-12-29T23:27:06.967Z,0.79
2022-12-29T23:29:34.015Z,0.65
2022-12-29T23:32:01.083Z,0.57
2022-12-29T23:34:28.118Z,1.11
2022-12-29T23:36:55.073Z,1.55
2022-12-29T23:39:24.545Z,1.50
2022-12-29T23:41:51.874Z,1.27
2022-12-29T23:44:18.969Z,1.07
2022-12-29T23:46:46.209Z,0.82
2022-12-29T23:49:13.285Z,0.67
2022-12-29T23:51:40.305Z,0.57
2022-12-29T23:54:07.295Z,0.58
2022-12-29T23:56:34.203Z,1.15
2022-12-29T23:59:04.217Z,1.39
